SACO/COR METAR and TAF weather

Enter ICAO airport designator
Station Type Date Time Source
SACO METAR 2020/02/24 09:00 UTC NOAA

SACO 240900Z 36007KT CAVOK 12/10 Q1007 NOSIG


Station Type Date Time Source
SACO Decoded METAR 2020/02/24 09:00 UTC NOAA

Cordoba Aerodrome, Argentina (SACO) 31-19S 064-13W 474M
Feb 24, 2020 - 04:00 AM EST / 2020.02.24 0900 UTC
Wind: from the N (360 degrees) at 8 MPH (7 KT):0
Visibility: greater than 7 mile(s):0
Temperature: 53 F (12 C)
Dew Point: 50 F (10 C)
Relative Humidity: 87%
Pressure (altimeter): 29.74 in. Hg (1007 hPa)
ob: SACO 240900Z 36007KT CAVOK 12/10 Q1007 NOSIG
cycle: 9

Station Type Date Time Source
SACO TAF 2020/02/24 06:12 UTC NOAA

TAF TAF SACO 240500Z 2406/2506 02010KT CAVOK TX34/2419Z TN15/2410Z PROB30
TEMPO 2407/2411 05003KT 5000 BR NSC
BECMG 2412/2414 09005KT 9999 SCT030

Example: see airport list